sensor_id;sensor_type;location;lat;lon;timestamp;P1;durP1;ratioP1;P2;durP2;ratioP2
47129;SDS011;69689;48.122;11.542;2023-07-30T05:04:00;0.00;;;0.00;;
47129;SDS011;69689;48.122;11.542;2023-07-30T05:06:25;0.00;;;0.00;;
47129;SDS011;69689;48.122;11.542;2023-07-30T05:08:51;0.00;;;0.00;;
47129;SDS011;69689;48.122;11.542;2023-07-30T05:11:16;0.00;;;0.00;;
47129;SDS011;69689;48.122;11.542;2023-07-30T05:13:41;0.00;;;0.00;;
47129;SDS011;69689;48.122;11.542;2023-07-30T05:16:07;0.00;;;0.00;;
47129;SDS011;69689;48.122;11.542;2023-07-30T05:18:32;0.00;;;0.00;;
47129;SDS011;69689;48.122;11.542;2023-07-30T05:20:57;0.00;;;0.00;;
47129;SDS011;69689;48.122;11.542;2023-07-30T05:23:23;0.00;;;0.00;;
47129;SDS011;69689;48.122;11.542;2023-07-30T05:25:48;0.00;;;0.00;;
47129;SDS011;69689;48.122;11.542;2023-07-30T05:28:13;0.00;;;0.00;;
47129;SDS011;69689;48.122;11.542;2023-07-30T05:30:38;0.00;;;0.00;;
47129;SDS011;69689;48.122;11.542;2023-07-30T05:33:04;0.00;;;0.00;;
47129;SDS011;69689;48.122;11.542;2023-07-30T05:35:29;0.00;;;0.00;;
47129;SDS011;69689;48.122;11.542;2023-07-30T05:37:55;0.00;;;0.00;;
47129;SDS011;69689;48.122;11.542;2023-07-30T05:40:20;0.00;;;0.00;;
47129;SDS011;69689;48.122;11.542;2023-07-30T05:42:46;0.00;;;0.00;;
47129;SDS011;69689;48.122;11.542;2023-07-30T05:45:11;0.00;;;0.00;;
47129;SDS011;69689;48.122;11.542;2023-07-30T05:47:37;0.00;;;0.00;;
47129;SDS011;69689;48.122;11.542;2023-07-30T05:50:02;0.00;;;0.00;;
47129;SDS011;69689;48.122;11.542;2023-07-30T05:52:28;0.00;;;0.00;;
47129;SDS011;69689;48.122;11.542;2023-07-30T05:54:53;0.00;;;0.00;;
47129;SDS011;69689;48.122;11.542;2023-07-30T05:57:18;0.00;;;0.00;;
47129;SDS011;69689;48.122;11.542;2023-07-30T05:59:43;0.00;;;0.00;;
47129;SDS011;69689;48.122;11.542;2023-07-30T06:02:09;0.00;;;0.00;;
47129;SDS011;69689;48.122;11.542;2023-07-30T06:04:34;0.00;;;0.00;;
47129;SDS011;69689;48.122;11.542;2023-07-30T06:06:59;0.00;;;0.00;;
47129;SDS011;69689;48.122;11.542;2023-07-30T06:09:25;0.00;;;0.00;;
47129;SDS011;69689;48.122;11.542;2023-07-30T06:11:51;0.00;;;0.00;;
47129;SDS011;69689;48.122;11.542;2023-07-30T06:14:16;0.00;;;0.00;;
47129;SDS011;69689;48.122;11.542;2023-07-30T06:16:41;0.00;;;0.00;;
47129;SDS011;69689;48.122;11.542;2023-07-30T06:19:08;0.00;;;0.00;;
47129;SDS011;69689;48.122;11.542;2023-07-30T06:21:33;0.00;;;0.00;;
47129;SDS011;69689;48.122;11.542;2023-07-30T06:23:59;0.00;;;0.00;;
47129;SDS011;69689;48.122;11.542;2023-07-30T06:26:24;0.00;;;0.00;;
47129;SDS011;69689;48.122;11.542;2023-07-30T06:28:49;0.00;;;0.00;;
47129;SDS011;69689;48.122;11.542;2023-07-30T06:31:14;0.00;;;0.00;;
47129;SDS011;69689;48.122;11.542;2023-07-30T06:33:40;0.00;;;0.00;;
47129;SDS011;69689;48.122;11.542;2023-07-30T06:36:05;0.00;;;0.00;;
47129;SDS011;69689;48.122;11.542;2023-07-30T06:38:30;0.00;;;0.00;;
47129;SDS011;69689;48.122;11.542;2023-07-30T06:40:56;0.00;;;0.00;;
47129;SDS011;69689;48.122;11.542;2023-07-30T06:43:22;0.00;;;0.00;;
47129;SDS011;69689;48.122;11.542;2023-07-30T06:45:48;0.00;;;0.00;;
47129;SDS011;69689;48.122;11.542;2023-07-30T06:48:13;0.00;;;0.00;;
47129;SDS011;69689;48.122;11.542;2023-07-30T06:50:40;0.00;;;0.00;;
47129;SDS011;69689;48.122;11.542;2023-07-30T06:53:05;0.00;;;0.00;;
47129;SDS011;69689;48.122;11.542;2023-07-30T06:55:31;0.00;;;0.00;;
47129;SDS011;69689;48.122;11.542;2023-07-30T06:57:56;0.00;;;0.00;;
47129;SDS011;69689;48.122;11.542;2023-07-30T07:00:21;0.00;;;0.00;;
47129;SDS011;69689;48.122;11.542;2023-07-30T07:02:47;0.00;;;0.00;;
47129;SDS011;69689;48.122;11.542;2023-07-30T07:05:13;0.00;;;0.00;;
47129;SDS011;69689;48.122;11.542;2023-07-30T07:07:39;0.00;;;0.00;;
47129;SDS011;69689;48.122;11.542;2023-07-30T07:10:05;0.00;;;0.00;;
47129;SDS011;69689;48.122;11.542;2023-07-30T07:12:30;0.00;;;0.00;;
47129;SDS011;69689;48.122;11.542;2023-07-30T07:14:55;0.00;;;0.00;;
47129;SDS011;69689;48.122;11.542;2023-07-30T07:17:23;0.00;;;0.00;;
47129;SDS011;69689;48.122;11.542;2023-07-30T07:19:51;0.00;;;0.00;;
47129;SDS011;69689;48.122;11.542;2023-07-30T07:22:16;0.00;;;0.00;;
47129;SDS011;69689;48.122;11.542;2023-07-30T07:24:43;0.00;;;0.00;;
47129;SDS011;69689;48.122;11.542;2023-07-30T07:27:09;0.00;;;0.00;;
47129;SDS011;69689;48.122;11.542;2023-07-30T07:29:34;0.00;;;0.00;;
47129;SDS011;69689;48.122;11.542;2023-07-30T07:32:00;0.00;;;0.00;;
47129;SDS011;69689;48.122;11.542;2023-07-30T07:34:25;0.00;;;0.00;;
47129;SDS011;69689;48.122;11.542;2023-07-30T07:36:50;0.00;;;0.00;;
47129;SDS011;69689;48.122;11.542;2023-07-30T07:39:16;0.00;;;0.00;;
47129;SDS011;69689;48.122;11.542;2023-07-30T07:41:41;0.00;;;0.00;;
47129;SDS011;69689;48.122;11.542;2023-07-30T07:44:06;0.00;;;0.00;;
47129;SDS011;69689;48.122;11.542;2023-07-30T07:46:32;0.00;;;0.00;;
47129;SDS011;69689;48.122;11.542;2023-07-30T07:48:57;0.00;;;0.00;;
47129;SDS011;69689;48.122;11.542;2023-07-30T07:51:22;0.00;;;0.00;;
47129;SDS011;69689;48.122;11.542;2023-07-30T07:53:47;0.00;;;0.00;;
47129;SDS011;69689;48.122;11.542;2023-07-30T07:56:13;0.00;;;0.00;;
47129;SDS011;69689;48.122;11.542;2023-07-30T07:58:38;0.00;;;0.00;;
47129;SDS011;69689;48.122;11.542;2023-07-30T08:01:03;0.00;;;0.00;;
47129;SDS011;69689;48.122;11.542;2023-07-30T08:03:29;0.00;;;0.00;;
47129;SDS011;69689;48.122;11.542;2023-07-30T08:05:54;0.00;;;0.00;;
47129;SDS011;69689;48.122;11.542;2023-07-30T08:08:20;0.00;;;0.00;;
47129;SDS011;69689;48.122;11.542;2023-07-30T08:10:45;0.00;;;0.00;;
47129;SDS011;69689;48.122;11.542;2023-07-30T08:13:12;0.00;;;0.00;;
47129;SDS011;69689;48.122;11.542;2023-07-30T08:15:38;0.00;;;0.00;;
47129;SDS011;69689;48.122;11.542;2023-07-30T08:18:03;0.00;;;0.00;;
47129;SDS011;69689;48.122;11.542;2023-07-30T08:20:29;0.00;;;0.00;;
47129;SDS011;69689;48.122;11.542;2023-07-30T08:22:54;0.00;;;0.00;;
47129;SDS011;69689;48.122;11.542;2023-07-30T08:25:19;0.00;;;0.00;;
47129;SDS011;69689;48.122;11.542;2023-07-30T08:27:45;0.00;;;0.00;;
47129;SDS011;69689;48.122;11.542;2023-07-30T08:30:11;0.00;;;0.00;;
47129;SDS011;69689;48.122;11.542;2023-07-30T08:32:37;0.00;;;0.00;;
47129;SDS011;69689;48.122;11.542;2023-07-30T08:35:02;0.00;;;0.00;;
47129;SDS011;69689;48.122;11.542;2023-07-30T08:37:28;0.00;;;0.00;;
47129;SDS011;69689;48.122;11.542;2023-07-30T08:39:54;0.00;;;0.00;;
47129;SDS011;69689;48.122;11.542;2023-07-30T08:42:19;0.00;;;0.00;;
47129;SDS011;69689;48.122;11.542;2023-07-30T08:44:44;0.00;;;0.00;;
47129;SDS011;69689;48.122;11.542;2023-07-30T08:47:10;0.00;;;0.00;;
47129;SDS011;69689;48.122;11.542;2023-07-30T08:49:35;0.00;;;0.00;;
47129;SDS011;69689;48.122;11.542;2023-07-30T08:52:01;0.00;;;0.00;;
47129;SDS011;69689;48.122;11.542;2023-07-30T08:54:29;0.00;;;0.00;;
47129;SDS011;69689;48.122;11.542;2023-07-30T08:56:55;0.00;;;0.00;;
47129;SDS011;69689;48.122;11.542;2023-07-30T08:59:20;0.00;;;0.00;;
47129;SDS011;69689;48.122;11.542;2023-07-30T09:01:46;0.00;;;0.00;;
47129;SDS011;69689;48.122;11.542;2023-07-30T09:04:15;0.00;;;0.00;;
47129;SDS011;69689;48.122;11.542;2023-07-30T09:06:42;0.00;;;0.00;;
47129;SDS011;69689;48.122;11.542;2023-07-30T09:09:08;0.00;;;0.00;;
47129;SDS011;69689;48.122;11.542;2023-07-30T09:11:34;0.00;;;0.00;;
47129;SDS011;69689;48.122;11.542;2023-07-30T09:14:01;0.00;;;0.00;;
47129;SDS011;69689;48.122;11.542;2023-07-30T09:16:27;0.00;;;0.00;;
47129;SDS011;69689;48.122;11.542;2023-07-30T09:18:53;0.00;;;0.00;;
47129;SDS011;69689;48.122;11.542;2023-07-30T09:21:19;0.00;;;0.00;;
47129;SDS011;69689;48.122;11.542;2023-07-30T09:23:45;0.00;;;0.00;;
47129;SDS011;69689;48.122;11.542;2023-07-30T09:26:11;0.00;;;0.00;;
47129;SDS011;69689;48.122;11.542;2023-07-30T09:28:37;0.00;;;0.00;;
47129;SDS011;69689;48.122;11.542;2023-07-30T09:31:07;0.13;;;0.13;;
47129;SDS011;69689;48.122;11.542;2023-07-30T09:33:33;0.08;;;0.08;;
47129;SDS011;69689;48.122;11.542;2023-07-30T09:36:03;0.00;;;0.00;;
47129;SDS011;69689;48.122;11.542;2023-07-30T09:38:29;0.00;;;0.00;;
47129;SDS011;69689;48.122;11.542;2023-07-30T09:41:01;0.00;;;0.00;;
47129;SDS011;69689;48.122;11.542;2023-07-30T09:43:34;0.40;;;0.40;;
47129;SDS011;69689;48.122;11.542;2023-07-30T09:46:03;0.32;;;0.32;;
47129;SDS011;69689;48.122;11.542;2023-07-30T09:48:30;0.32;;;0.32;;
47129;SDS011;69689;48.122;11.542;2023-07-30T09:51:00;0.15;;;0.15;;
47129;SDS011;69689;48.122;11.542;2023-07-30T09:53:27;0.20;;;0.20;;
47129;SDS011;69689;48.122;11.542;2023-07-30T09:55:54;0.10;;;0.10;;
47129;SDS011;69689;48.122;11.542;2023-07-30T09:58:20;0.57;;;0.57;;
47129;SDS011;69689;48.122;11.542;2023-07-30T10:00:45;1.77;;;1.77;;
47129;SDS011;69689;48.122;11.542;2023-07-30T10:03:12;8.32;;;8.13;;
47129;SDS011;69689;48.122;11.542;2023-07-30T10:05:40;11.68;;;11.38;;
47129;SDS011;69689;48.122;11.542;2023-07-30T10:08:08;9.80;;;9.55;;
47129;SDS011;69689;48.122;11.542;2023-07-30T10:10:34;4.35;;;4.25;;
47129;SDS011;69689;48.122;11.542;2023-07-30T10:13:01;1.23;;;1.23;;
47129;SDS011;69689;48.122;11.542;2023-07-30T10:15:29;0.13;;;0.13;;
47129;SDS011;69689;48.122;11.542;2023-07-30T10:17:55;0.20;;;0.20;;
47129;SDS011;69689;48.122;11.542;2023-07-30T10:20:26;0.10;;;0.10;;
47129;SDS011;69689;48.122;11.542;2023-07-30T10:22:55;0.00;;;0.00;;
47129;SDS011;69689;48.122;11.542;2023-07-30T10:25:22;0.00;;;0.00;;
47129;SDS011;69689;48.122;11.542;2023-07-30T10:27:50;0.00;;;0.00;;
47129;SDS011;69689;48.122;11.542;2023-07-30T10:30:16;0.10;;;0.10;;
47129;SDS011;69689;48.122;11.542;2023-07-30T10:35:40;1.92;;;1.92;;
47129;SDS011;69689;48.122;11.542;2023-07-30T10:38:14;2.38;;;2.38;;
47129;SDS011;69689;48.122;11.542;2023-07-30T10:41:00;3.28;;;3.25;;
47129;SDS011;69689;48.122;11.542;2023-07-30T10:46:01;11.60;;;11.27;;
47129;SDS011;69689;48.122;11.542;2023-07-30T10:48:34;23.27;;;22.58;;
47129;SDS011;69689;48.122;11.542;2023-07-30T10:51:10;22.73;;;22.08;;
47129;SDS011;69689;48.122;11.542;2023-07-30T10:53:37;35.80;;;34.80;;
47129;SDS011;69689;48.122;11.542;2023-07-30T10:56:04;43.03;;;41.78;;
47129;SDS011;69689;48.122;11.542;2023-07-30T10:58:30;41.58;;;40.35;;
47129;SDS011;69689;48.122;11.542;2023-07-30T11:00:57;50.30;;;48.85;;
47129;SDS011;69689;48.122;11.542;2023-07-30T11:03:26;48.83;;;47.42;;
47129;SDS011;69689;48.122;11.542;2023-07-30T11:05:51;46.42;;;45.10;;
47129;SDS011;69689;48.122;11.542;2023-07-30T11:08:17;53.47;;;51.88;;
47129;SDS011;69689;48.122;11.542;2023-07-30T11:10:43;113.20;;;110.10;;
47129;SDS011;69689;48.122;11.542;2023-07-30T11:13:09;78.53;;;76.32;;
47129;SDS011;69689;48.122;11.542;2023-07-30T11:15:40;56.15;;;54.55;;
47129;SDS011;69689;48.122;11.542;2023-07-30T11:18:06;32.78;;;31.85;;
47129;SDS011;69689;48.122;11.542;2023-07-30T11:20:32;12.18;;;11.88;;
47129;SDS011;69689;48.122;11.542;2023-07-30T11:22:57;27.38;;;26.58;;
47129;SDS011;69689;48.122;11.542;2023-07-30T11:25:22;76.00;;;73.90;;
47129;SDS011;69689;48.122;11.542;2023-07-30T11:27:48;104.90;;;102.00;;
47129;SDS011;69689;48.122;11.542;2023-07-30T11:30:14;187.60;;;182.93;;
47129;SDS011;69689;48.122;11.542;2023-07-30T11:32:39;158.57;;;154.47;;
47129;SDS011;69689;48.122;11.542;2023-07-30T11:35:06;64.68;;;62.83;;
47129;SDS011;69689;48.122;11.542;2023-07-30T11:37:32;21.42;;;20.80;;
47129;SDS011;69689;48.122;11.542;2023-07-30T11:39:57;26.85;;;26.05;;
47129;SDS011;69689;48.122;11.542;2023-07-30T11:42:23;75.18;;;73.05;;
47129;SDS011;69689;48.122;11.542;2023-07-30T11:44:48;71.88;;;69.82;;
47129;SDS011;69689;48.122;11.542;2023-07-30T11:47:20;36.58;;;35.53;;
47129;SDS011;69689;48.122;11.542;2023-07-30T11:49:59;11.23;;;10.93;;
47129;SDS011;69689;48.122;11.542;2023-07-30T11:52:24;3.35;;;3.30;;
47129;SDS011;69689;48.122;11.542;2023-07-30T11:54:59;1.77;;;1.77;;
47129;SDS011;69689;48.122;11.542;2023-07-30T11:57:35;2.40;;;2.40;;
47129;SDS011;69689;48.122;11.542;2023-07-30T12:00:00;2.05;;;2.05;;
47129;SDS011;69689;48.122;11.542;2023-07-30T12:02:26;3.63;;;3.55;;
47129;SDS011;69689;48.122;11.542;2023-07-30T12:04:51;10.02;;;9.75;;
47129;SDS011;69689;48.122;11.542;2023-07-30T12:07:23;45.40;;;44.10;;
47129;SDS011;69689;48.122;11.542;2023-07-30T12:09:52;117.63;;;114.50;;
47129;SDS011;69689;48.122;11.542;2023-07-30T12:12:18;179.07;;;174.57;;
47129;SDS011;69689;48.122;11.542;2023-07-30T12:14:44;269.23;;;262.85;;
47129;SDS011;69689;48.122;11.542;2023-07-30T12:17:18;305.13;;;298.02;;
47129;SDS011;69689;48.122;11.542;2023-07-30T12:19:43;113.20;;;110.13;;
47129;SDS011;69689;48.122;11.542;2023-07-30T12:22:08;41.80;;;40.60;;
47129;SDS011;69689;48.122;11.542;2023-07-30T12:24:34;52.05;;;50.55;;
47129;SDS011;69689;48.122;11.542;2023-07-30T12:26:59;70.17;;;68.13;;
47129;SDS011;69689;48.122;11.542;2023-07-30T12:29:25;94.03;;;91.43;;
47129;SDS011;69689;48.122;11.542;2023-07-30T12:31:51;35.55;;;34.50;;
47129;SDS011;69689;48.122;11.542;2023-07-30T12:34:21;63.40;;;61.58;;
47129;SDS011;69689;48.122;11.542;2023-07-30T12:36:47;71.68;;;69.65;;
47129;SDS011;69689;48.122;11.542;2023-07-30T12:39:13;35.60;;;34.55;;
47129;SDS011;69689;48.122;11.542;2023-07-30T12:41:38;39.63;;;38.47;;
47129;SDS011;69689;48.122;11.542;2023-07-30T12:44:03;24.67;;;23.97;;
47129;SDS011;69689;48.122;11.542;2023-07-30T12:46:29;12.20;;;11.90;;
47129;SDS011;69689;48.122;11.542;2023-07-30T12:48:55;12.57;;;12.27;;
47129;SDS011;69689;48.122;11.542;2023-07-30T12:51:21;7.68;;;7.47;;
47129;SDS011;69689;48.122;11.542;2023-07-30T12:53:47;6.82;;;6.63;;
47129;SDS011;69689;48.122;11.542;2023-07-30T12:56:12;7.07;;;6.88;;
47129;SDS011;69689;48.122;11.542;2023-07-30T12:58:39;14.60;;;14.20;;
47129;SDS011;69689;48.122;11.542;2023-07-30T13:01:05;58.63;;;56.93;;
47129;SDS011;69689;48.122;11.542;2023-07-30T13:03:30;101.70;;;98.90;;
47129;SDS011;69689;48.122;11.542;2023-07-30T13:05:55;176.05;;;171.63;;
47129;SDS011;69689;48.122;11.542;2023-07-30T13:08:21;294.90;;;288.07;;
47129;SDS011;69689;48.122;11.542;2023-07-30T13:10:46;368.17;;;359.93;;
47129;SDS011;69689;48.122;11.542;2023-07-30T13:13:11;346.90;;;339.00;;
47129;SDS011;69689;48.122;11.542;2023-07-30T13:15:36;167.02;;;162.80;;
47129;SDS011;69689;48.122;11.542;2023-07-30T13:18:02;52.57;;;51.07;;
47129;SDS011;69689;48.122;11.542;2023-07-30T13:20:28;64.88;;;62.97;;
47129;SDS011;69689;48.122;11.542;2023-07-30T13:22:53;81.72;;;79.43;;
47129;SDS011;69689;48.122;11.542;2023-07-30T13:25:19;42.97;;;41.70;;
47129;SDS011;69689;48.122;11.542;2023-07-30T13:27:45;14.45;;;14.05;;
47129;SDS011;69689;48.122;11.542;2023-07-30T13:30:10;10.80;;;10.50;;
47129;SDS011;69689;48.122;11.542;2023-07-30T13:32:36;5.38;;;5.28;;
47129;SDS011;69689;48.122;11.542;2023-07-30T13:35:02;1.10;;;1.10;;
47129;SDS011;69689;48.122;11.542;2023-07-30T13:37:28;0.22;;;0.22;;
47129;SDS011;69689;48.122;11.542;2023-07-30T13:39:53;0.30;;;0.30;;
47129;SDS011;69689;48.122;11.542;2023-07-30T13:42:18;0.05;;;0.05;;
47129;SDS011;69689;48.122;11.542;2023-07-30T13:44:44;0.00;;;0.00;;
47129;SDS011;69689;48.122;11.542;2023-07-30T13:47:09;0.03;;;0.03;;
47129;SDS011;69689;48.122;11.542;2023-07-30T13:49:35;0.10;;;0.10;;
47129;SDS011;69689;48.122;11.542;2023-07-30T13:52:00;0.70;;;0.70;;
47129;SDS011;69689;48.122;11.542;2023-07-30T13:54:25;0.83;;;0.83;;
47129;SDS011;69689;48.122;11.542;2023-07-30T13:56:51;3.90;;;3.80;;
47129;SDS011;69689;48.122;11.542;2023-07-30T13:59:16;8.98;;;8.77;;
47129;SDS011;69689;48.122;11.542;2023-07-30T14:01:41;15.83;;;15.43;;
47129;SDS011;69689;48.122;11.542;2023-07-30T14:04:07;27.23;;;26.42;;
47129;SDS011;69689;48.122;11.542;2023-07-30T14:06:32;54.83;;;53.23;;
47129;SDS011;69689;48.122;11.542;2023-07-30T14:08:57;29.10;;;28.27;;
47129;SDS011;69689;48.122;11.542;2023-07-30T14:11:24;30.15;;;29.25;;
47129;SDS011;69689;48.122;11.542;2023-07-30T14:13:51;58.55;;;56.85;;
47129;SDS011;69689;48.122;11.542;2023-07-30T14:16:16;76.03;;;73.93;;
47129;SDS011;69689;48.122;11.542;2023-07-30T14:18:41;83.20;;;80.90;;
47129;SDS011;69689;48.122;11.542;2023-07-30T14:21:06;114.13;;;111.07;;
47129;SDS011;69689;48.122;11.542;2023-07-30T14:23:32;101.43;;;98.63;;
47129;SDS011;69689;48.122;11.542;2023-07-30T14:25:57;133.90;;;130.37;;
47129;SDS011;69689;48.122;11.542;2023-07-30T14:28:23;146.82;;;143.02;;
47129;SDS011;69689;48.122;11.542;2023-07-30T14:30:48;143.23;;;139.52;;
47129;SDS011;69689;48.122;11.542;2023-07-30T14:33:14;129.20;;;125.80;;
47129;SDS011;69689;48.122;11.542;2023-07-30T14:35:39;31.40;;;30.50;;
47129;SDS011;69689;48.122;11.542;2023-07-30T14:38:05;22.73;;;22.10;;
47129;SDS011;69689;48.122;11.542;2023-07-30T14:40:31;48.80;;;47.38;;
47129;SDS011;69689;48.122;11.542;2023-07-30T14:42:56;38.90;;;37.72;;
47129;SDS011;69689;48.122;11.542;2023-07-30T14:45:22;31.63;;;30.73;;
47129;SDS011;69689;48.122;11.542;2023-07-30T14:47:47;28.33;;;27.52;;
47129;SDS011;69689;48.122;11.542;2023-07-30T14:50:12;18.60;;;18.10;;
47129;SDS011;69689;48.122;11.542;2023-07-30T14:52:38;16.40;;;15.93;;
47129;SDS011;69689;48.122;11.542;2023-07-30T14:55:03;5.60;;;5.50;;
47129;SDS011;69689;48.122;11.542;2023-07-30T14:57:29;1.25;;;1.25;;
47129;SDS011;69689;48.122;11.542;2023-07-30T14:59:55;0.40;;;0.40;;
47129;SDS011;69689;48.122;11.542;2023-07-30T15:02:20;0.38;;;0.38;;
47129;SDS011;69689;48.122;11.542;2023-07-30T15:04:46;0.20;;;0.20;;
47129;SDS011;69689;48.122;11.542;2023-07-30T15:07:11;0.20;;;0.20;;
47129;SDS011;69689;48.122;11.542;2023-07-30T15:09:37;0.88;;;0.88;;
47129;SDS011;69689;48.122;11.542;2023-07-30T15:12:02;2.25;;;2.25;;
47129;SDS011;69689;48.122;11.542;2023-07-30T15:14:30;5.63;;;5.53;;
47129;SDS011;69689;48.122;11.542;2023-07-30T15:16:55;9.10;;;8.90;;
47129;SDS011;69689;48.122;11.542;2023-07-30T15:19:21;6.00;;;5.90;;
47129;SDS011;69689;48.122;11.542;2023-07-30T15:21:47;2.75;;;2.75;;
47129;SDS011;69689;48.122;11.542;2023-07-30T15:24:12;4.73;;;4.63;;
47129;SDS011;69689;48.122;11.542;2023-07-30T15:26:37;12.30;;;12.00;;
47129;SDS011;69689;48.122;11.542;2023-07-30T15:29:02;21.13;;;20.53;;
47129;SDS011;69689;48.122;11.542;2023-07-30T15:31:28;36.33;;;35.28;;
47129;SDS011;69689;48.122;11.542;2023-07-30T15:33:54;25.20;;;24.50;;
47129;SDS011;69689;48.122;11.542;2023-07-30T15:36:20;41.40;;;40.17;;
47129;SDS011;69689;48.122;11.542;2023-07-30T15:38:46;49.97;;;48.50;;
47129;SDS011;69689;48.122;11.542;2023-07-30T15:41:16;61.17;;;59.40;;
47129;SDS011;69689;48.122;11.542;2023-07-30T15:43:41;71.73;;;69.70;;
47129;SDS011;69689;48.122;11.542;2023-07-30T15:46:07;83.63;;;81.28;;
47129;SDS011;69689;48.122;11.542;2023-07-30T15:48:33;85.28;;;82.97;;
47129;SDS011;69689;48.122;11.542;2023-07-30T15:51:04;60.47;;;58.70;;
47129;SDS011;69689;48.122;11.542;2023-07-30T15:53:29;48.10;;;46.67;;
47129;SDS011;69689;48.122;11.542;2023-07-30T15:55:55;64.60;;;62.73;;
47129;SDS011;69689;48.122;11.542;2023-07-30T15:58:24;74.53;;;72.40;;
47129;SDS011;69689;48.122;11.542;2023-07-30T16:00:49;49.78;;;48.28;;
47129;SDS011;69689;48.122;11.542;2023-07-30T16:03:15;12.90;;;12.57;;
47129;SDS011;69689;48.122;11.542;2023-07-30T16:05:45;5.83;;;5.73;;
47129;SDS011;69689;48.122;11.542;2023-07-30T16:08:12;10.63;;;10.32;;
47129;SDS011;69689;48.122;11.542;2023-07-30T16:10:37;18.30;;;17.80;;
47129;SDS011;69689;48.122;11.542;2023-07-30T16:13:02;27.10;;;26.30;;
47129;SDS011;69689;48.122;11.542;2023-07-30T16:15:28;37.17;;;36.07;;
47129;SDS011;69689;48.122;11.542;2023-07-30T16:17:53;33.72;;;32.72;;
47129;SDS011;69689;48.122;11.542;2023-07-30T16:20:19;33.38;;;32.38;;
47129;SDS011;69689;48.122;11.542;2023-07-30T16:22:44;36.67;;;35.60;;
47129;SDS011;69689;48.122;11.542;2023-07-30T16:25:09;23.38;;;22.70;;
47129;SDS011;69689;48.122;11.542;2023-07-30T16:27:35;10.57;;;10.27;;
47129;SDS011;69689;48.122;11.542;2023-07-30T16:30:00;1.60;;;1.60;;
47129;SDS011;69689;48.122;11.542;2023-07-30T16:32:26;0.68;;;0.68;;
47129;SDS011;69689;48.122;11.542;2023-07-30T16:34:51;0.40;;;0.40;;
47129;SDS011;69689;48.122;11.542;2023-07-30T16:37:17;0.22;;;0.22;;
47129;SDS011;69689;48.122;11.542;2023-07-30T16:39:44;0.10;;;0.10;;
47129;SDS011;69689;48.122;11.542;2023-07-30T16:42:10;0.00;;;0.00;;
47129;SDS011;69689;48.122;11.542;2023-07-30T16:44:35;0.22;;;0.22;;
47129;SDS011;69689;48.122;11.542;2023-07-30T16:47:00;0.70;;;0.70;;
47129;SDS011;69689;48.122;11.542;2023-07-30T16:49:25;0.73;;;0.73;;
47129;SDS011;69689;48.122;11.542;2023-07-30T16:51:51;0.50;;;0.50;;
47129;SDS011;69689;48.122;11.542;2023-07-30T16:54:16;0.10;;;0.10;;
47129;SDS011;69689;48.122;11.542;2023-07-30T16:56:42;0.40;;;0.40;;
47129;SDS011;69689;48.122;11.542;2023-07-30T16:59:08;0.15;;;0.15;;
47129;SDS011;69689;48.122;11.542;2023-07-30T17:01:33;0.10;;;0.10;;
47129;SDS011;69689;48.122;11.542;2023-07-30T17:03:58;0.00;;;0.00;;
47129;SDS011;69689;48.122;11.542;2023-07-30T17:06:24;0.00;;;0.00;;
47129;SDS011;69689;48.122;11.542;2023-07-30T17:08:49;0.00;;;0.00;;
47129;SDS011;69689;48.122;11.542;2023-07-30T17:11:14;0.00;;;0.00;;
47129;SDS011;69689;48.122;11.542;2023-07-30T17:13:40;0.00;;;0.00;;
47129;SDS011;69689;48.122;11.542;2023-07-30T17:16:12;0.00;;;0.00;;
47129;SDS011;69689;48.122;11.542;2023-07-30T17:18:37;0.03;;;0.00;;
47129;SDS011;69689;48.122;11.542;2023-07-30T17:21:03;0.00;;;0.00;;
47129;SDS011;69689;48.122;11.542;2023-07-30T17:23:29;0.00;;;0.00;;
47129;SDS011;69689;48.122;11.542;2023-07-30T17:25:55;0.00;;;0.00;;
47129;SDS011;69689;48.122;11.542;2023-07-30T17:28:24;0.00;;;0.00;;
47129;SDS011;69689;48.122;11.542;2023-07-30T17:30:53;0.00;;;0.00;;
47129;SDS011;69689;48.122;11.542;2023-07-30T17:33:20;0.00;;;0.00;;
47129;SDS011;69689;48.122;11.542;2023-07-30T17:35:46;0.00;;;0.00;;
47129;SDS011;69689;48.122;11.542;2023-07-30T17:38:11;0.00;;;0.00;;
47129;SDS011;69689;48.122;11.542;2023-07-30T17:40:39;0.00;;;0.00;;
47129;SDS011;69689;48.122;11.542;2023-07-30T17:43:04;0.00;;;0.00;;
47129;SDS011;69689;48.122;11.542;2023-07-30T17:45:30;0.00;;;0.00;;
47129;SDS011;69689;48.122;11.542;2023-07-30T17:47:55;0.00;;;0.00;;
47129;SDS011;69689;48.122;11.542;2023-07-30T17:50:21;0.00;;;0.00;;
47129;SDS011;69689;48.122;11.542;2023-07-30T17:52:46;0.00;;;0.00;;
47129;SDS011;69689;48.122;11.542;2023-07-30T17:55:11;0.00;;;0.00;;
47129;SDS011;69689;48.122;11.542;2023-07-30T17:57:37;0.00;;;0.00;;
47129;SDS011;69689;48.122;11.542;2023-07-30T18:00:03;0.00;;;0.00;;
47129;SDS011;69689;48.122;11.542;2023-07-30T18:02:32;0.00;;;0.00;;
47129;SDS011;69689;48.122;11.542;2023-07-30T18:04:57;0.00;;;0.00;;
47129;SDS011;69689;48.122;11.542;2023-07-30T18:07:22;0.00;;;0.00;;
47129;SDS011;69689;48.122;11.542;2023-07-30T18:09:48;0.00;;;0.00;;
47129;SDS011;69689;48.122;11.542;2023-07-30T18:12:13;0.00;;;0.00;;
47129;SDS011;69689;48.122;11.542;2023-07-30T18:14:38;0.00;;;0.00;;
47129;SDS011;69689;48.122;11.542;2023-07-30T18:17:04;0.00;;;0.00;;
47129;SDS011;69689;48.122;11.542;2023-07-30T18:19:29;0.00;;;0.00;;
47129;SDS011;69689;48.122;11.542;2023-07-30T18:21:55;0.00;;;0.00;;
47129;SDS011;69689;48.122;11.542;2023-07-30T18:24:21;0.00;;;0.00;;
47129;SDS011;69689;48.122;11.542;2023-07-30T18:26:46;0.00;;;0.00;;
47129;SDS011;69689;48.122;11.542;2023-07-30T18:29:11;0.00;;;0.00;;
47129;SDS011;69689;48.122;11.542;2023-07-30T18:31:40;0.00;;;0.00;;
47129;SDS011;69689;48.122;11.542;2023-07-30T18:34:08;0.00;;;0.00;;
47129;SDS011;69689;48.122;11.542;2023-07-30T18:36:33;0.00;;;0.00;;
47129;SDS011;69689;48.122;11.542;2023-07-30T18:38:59;0.00;;;0.00;;
47129;SDS011;69689;48.122;11.542;2023-07-30T18:41:24;0.00;;;0.00;;
47129;SDS011;69689;48.122;11.542;2023-07-30T18:43:50;0.00;;;0.00;;
47129;SDS011;69689;48.122;11.542;2023-07-30T18:46:15;0.00;;;0.00;;
47129;SDS011;69689;48.122;11.542;2023-07-30T18:48:40;0.00;;;0.00;;
47129;SDS011;69689;48.122;11.542;2023-07-30T18:51:06;0.00;;;0.00;;
47129;SDS011;69689;48.122;11.542;2023-07-30T18:53:31;0.00;;;0.00;;
47129;SDS011;69689;48.122;11.542;2023-07-30T18:55:56;0.00;;;0.00;;
47129;SDS011;69689;48.122;11.542;2023-07-30T18:58:22;0.00;;;0.00;;
47129;SDS011;69689;48.122;11.542;2023-07-30T19:00:47;0.00;;;0.00;;
